sensor_id;sensor_type;location;lat;lon;timestamp;temperature;humidity
12602;DHT22;30282;16.436;99.370;2024-02-15T00:00:41;20.00;99.90
12602;DHT22;30282;16.436;99.370;2024-02-15T00:03:12;20.10;99.90
12602;DHT22;30282;16.436;99.370;2024-02-15T00:05:44;20.10;99.90
12602;DHT22;30282;16.436;99.370;2024-02-15T00:08:14;20.10;99.90
12602;DHT22;30282;16.436;99.370;2024-02-15T00:10:45;20.10;99.90
12602;DHT22;30282;16.436;99.370;2024-02-15T00:13:14;20.00;99.90
12602;DHT22;30282;16.436;99.370;2024-02-15T00:15:44;20.00;99.90
12602;DHT22;30282;16.436;99.370;2024-02-15T00:18:16;20.00;99.90
12602;DHT22;30282;16.436;99.370;2024-02-15T00:20:45;19.90;99.90
12602;DHT22;30282;16.436;99.370;2024-02-15T00:23:14;19.90;99.90
12602;DHT22;30282;16.436;99.370;2024-02-15T00:25:46;19.90;99.90
12602;DHT22;30282;16.436;99.370;2024-02-15T00:28:16;20.00;99.90
12602;DHT22;30282;16.436;99.370;2024-02-15T00:30:47;20.10;99.90
12602;DHT22;30282;16.436;99.370;2024-02-15T00:33:16;20.20;99.90
12602;DHT22;30282;16.436;99.370;2024-02-15T00:35:45;20.20;99.90
12602;DHT22;30282;16.436;99.370;2024-02-15T00:38:18;20.30;99.90
12602;DHT22;30282;16.436;99.370;2024-02-15T00:40:50;20.30;99.90
12602;DHT22;30282;16.436;99.370;2024-02-15T00:43:20;20.30;99.90
12602;DHT22;30282;16.436;99.370;2024-02-15T00:45:49;20.40;99.90
12602;DHT22;30282;16.436;99.370;2024-02-15T00:48:18;20.50;99.90
12602;DHT22;30282;16.436;99.370;2024-02-15T00:50:48;20.70;99.90
12602;DHT22;30282;16.436;99.370;2024-02-15T00:53:17;20.70;99.90
12602;DHT22;30282;16.436;99.370;2024-02-15T00:55:49;20.70;99.90
12602;DHT22;30282;16.436;99.370;2024-02-15T00:58:18;20.70;99.90
12602;DHT22;30282;16.436;99.370;2024-02-15T01:00:48;20.80;99.90
12602;DHT22;30282;16.436;99.370;2024-02-15T01:03:17;20.90;99.90
12602;DHT22;30282;16.436;99.370;2024-02-15T01:05:47;21.10;99.90
12602;DHT22;30282;16.436;99.370;2024-02-15T01:08:16;21.10;99.90
12602;DHT22;30282;16.436;99.370;2024-02-15T01:10:45;21.20;99.90
12602;DHT22;30282;16.436;99.370;2024-02-15T01:13:16;21.40;99.90
12602;DHT22;30282;16.436;99.370;2024-02-15T01:15:46;21.50;99.90
12602;DHT22;30282;16.436;99.370;2024-02-15T01:18:15;21.50;99.90
12602;DHT22;30282;16.436;99.370;2024-02-15T01:20:44;21.70;99.90
12602;DHT22;30282;16.436;99.370;2024-02-15T01:23:13;21.80;99.90
12602;DHT22;30282;16.436;99.370;2024-02-15T01:25:43;21.90;99.90
12602;DHT22;30282;16.436;99.370;2024-02-15T01:28:12;22.10;99.90
12602;DHT22;30282;16.436;99.370;2024-02-15T01:30:43;22.20;99.90
12602;DHT22;30282;16.436;99.370;2024-02-15T01:33:13;22.30;99.90
12602;DHT22;30282;16.436;99.370;2024-02-15T01:35:42;22.50;99.90
12602;DHT22;30282;16.436;99.370;2024-02-15T01:38:11;22.70;99.90
12602;DHT22;30282;16.436;99.370;2024-02-15T01:40:40;22.90;99.90
12602;DHT22;30282;16.436;99.370;2024-02-15T01:43:09;23.00;99.90
12602;DHT22;30282;16.436;99.370;2024-02-15T01:45:39;23.10;99.90
12602;DHT22;30282;16.436;99.370;2024-02-15T01:48:10;23.20;99.90
12602;DHT22;30282;16.436;99.370;2024-02-15T01:50:39;23.30;99.90
12602;DHT22;30282;16.436;99.370;2024-02-15T01:53:09;23.40;99.90
12602;DHT22;30282;16.436;99.370;2024-02-15T01:55:39;23.50;99.90
12602;DHT22;30282;16.436;99.370;2024-02-15T01:58:09;23.70;99.90
12602;DHT22;30282;16.436;99.370;2024-02-15T02:00:38;23.80;99.90
12602;DHT22;30282;16.436;99.370;2024-02-15T02:03:11;23.90;99.90
12602;DHT22;30282;16.436;99.370;2024-02-15T02:05:42;24.10;99.90
12602;DHT22;30282;16.436;99.370;2024-02-15T02:08:11;24.20;99.90
12602;DHT22;30282;16.436;99.370;2024-02-15T02:10:41;24.30;99.90
12602;DHT22;30282;16.436;99.370;2024-02-15T02:13:10;24.50;99.90
12602;DHT22;30282;16.436;99.370;2024-02-15T02:15:40;24.70;99.90
12602;DHT22;30282;16.436;99.370;2024-02-15T02:18:11;25.00;99.90
12602;DHT22;30282;16.436;99.370;2024-02-15T02:20:40;25.20;99.90
12602;DHT22;30282;16.436;99.370;2024-02-15T02:23:14;25.30;99.90
12602;DHT22;30282;16.436;99.370;2024-02-15T02:25:47;25.50;99.90
12602;DHT22;30282;16.436;99.370;2024-02-15T02:28:16;25.70;99.90
12602;DHT22;30282;16.436;99.370;2024-02-15T02:30:46;26.00;99.90
12602;DHT22;30282;16.436;99.370;2024-02-15T02:33:15;26.20;99.90
12602;DHT22;30282;16.436;99.370;2024-02-15T02:35:45;26.40;99.90
12602;DHT22;30282;16.436;99.370;2024-02-15T02:38:15;26.60;99.90
12602;DHT22;30282;16.436;99.370;2024-02-15T02:40:46;26.90;99.90
12602;DHT22;30282;16.436;99.370;2024-02-15T02:43:15;27.00;99.90
12602;DHT22;30282;16.436;99.370;2024-02-15T02:45:44;27.10;99.90
12602;DHT22;30282;16.436;99.370;2024-02-15T02:48:13;27.30;99.90
12602;DHT22;30282;16.436;99.370;2024-02-15T02:50:45;27.50;99.90
12602;DHT22;30282;16.436;99.370;2024-02-15T02:53:14;27.60;99.90
12602;DHT22;30282;16.436;99.370;2024-02-15T02:55:45;27.90;99.90
12602;DHT22;30282;16.436;99.370;2024-02-15T02:58:14;28.00;99.90
12602;DHT22;30282;16.436;99.370;2024-02-15T03:00:43;28.10;99.90
12602;DHT22;30282;16.436;99.370;2024-02-15T03:03:13;28.30;99.90
12602;DHT22;30282;16.436;99.370;2024-02-15T03:05:41;28.50;99.90
12602;DHT22;30282;16.436;99.370;2024-02-15T03:08:10;28.60;99.90
12602;DHT22;30282;16.436;99.370;2024-02-15T03:10:40;28.70;99.90
12602;DHT22;30282;16.436;99.370;2024-02-15T03:13:11;28.80;99.90
12602;DHT22;30282;16.436;99.370;2024-02-15T03:15:40;29.00;99.90
12602;DHT22;30282;16.436;99.370;2024-02-15T03:18:10;29.20;99.90
12602;DHT22;30282;16.436;99.370;2024-02-15T03:20:39;29.40;99.90
12602;DHT22;30282;16.436;99.370;2024-02-15T03:23:09;29.60;99.90
12602;DHT22;30282;16.436;99.370;2024-02-15T03:25:38;29.80;99.90
12602;DHT22;30282;16.436;99.370;2024-02-15T03:28:07;29.90;99.90
12602;DHT22;30282;16.436;99.370;2024-02-15T03:30:38;30.00;99.90
12602;DHT22;30282;16.436;99.370;2024-02-15T03:33:07;30.20;99.90
12602;DHT22;30282;16.436;99.370;2024-02-15T03:35:37;30.30;99.90
12602;DHT22;30282;16.436;99.370;2024-02-15T03:38:06;30.40;99.90
12602;DHT22;30282;16.436;99.370;2024-02-15T03:40:35;30.60;99.90
12602;DHT22;30282;16.436;99.370;2024-02-15T03:43:09;30.80;99.90
12602;DHT22;30282;16.436;99.370;2024-02-15T03:45:40;30.90;99.90
12602;DHT22;30282;16.436;99.370;2024-02-15T03:48:11;31.20;99.90
12602;DHT22;30282;16.436;99.370;2024-02-15T03:50:41;31.20;99.90
12602;DHT22;30282;16.436;99.370;2024-02-15T03:53:10;31.40;99.90
12602;DHT22;30282;16.436;99.370;2024-02-15T03:55:40;31.40;99.90
12602;DHT22;30282;16.436;99.370;2024-02-15T03:58:09;31.50;99.90
12602;DHT22;30282;16.436;99.370;2024-02-15T04:00:43;31.70;99.90
12602;DHT22;30282;16.436;99.370;2024-02-15T04:03:12;31.90;99.90
12602;DHT22;30282;16.436;99.370;2024-02-15T04:05:41;32.00;99.90
12602;DHT22;30282;16.436;99.370;2024-02-15T04:08:15;32.10;99.90
12602;DHT22;30282;16.436;99.370;2024-02-15T04:10:45;32.20;99.90
12602;DHT22;30282;16.436;99.370;2024-02-15T04:13:15;32.30;99.90
12602;DHT22;30282;16.436;99.370;2024-02-15T04:15:46;32.50;99.90
12602;DHT22;30282;16.436;99.370;2024-02-15T04:18:16;32.60;99.90
12602;DHT22;30282;16.436;99.370;2024-02-15T04:20:45;32.70;99.90
12602;DHT22;30282;16.436;99.370;2024-02-15T04:23:15;32.80;99.90
12602;DHT22;30282;16.436;99.370;2024-02-15T04:25:46;32.90;99.90
12602;DHT22;30282;16.436;99.370;2024-02-15T04:28:18;32.90;99.90
12602;DHT22;30282;16.436;99.370;2024-02-15T04:30:48;32.90;99.90
12602;DHT22;30282;16.436;99.370;2024-02-15T04:33:18;33.10;99.90
12602;DHT22;30282;16.436;99.370;2024-02-15T04:35:47;33.30;99.90
12602;DHT22;30282;16.436;99.370;2024-02-15T04:38:18;33.50;99.90
12602;DHT22;30282;16.436;99.370;2024-02-15T04:40:47;33.60;99.90
12602;DHT22;30282;16.436;99.370;2024-02-15T04:43:16;33.70;99.90
12602;DHT22;30282;16.436;99.370;2024-02-15T04:45:47;33.90;99.90
12602;DHT22;30282;16.436;99.370;2024-02-15T04:48:18;34.00;99.90
12602;DHT22;30282;16.436;99.370;2024-02-15T04:50:48;34.00;99.90
12602;DHT22;30282;16.436;99.370;2024-02-15T04:53:18;34.00;99.90
12602;DHT22;30282;16.436;99.370;2024-02-15T04:55:48;34.10;99.90
12602;DHT22;30282;16.436;99.370;2024-02-15T04:58:17;34.20;99.90
12602;DHT22;30282;16.436;99.370;2024-02-15T05:00:48;34.40;99.90
12602;DHT22;30282;16.436;99.370;2024-02-15T05:03:20;34.60;99.90
12602;DHT22;30282;16.436;99.370;2024-02-15T05:05:49;34.80;99.90
12602;DHT22;30282;16.436;99.370;2024-02-15T05:08:18;35.00;99.90
12602;DHT22;30282;16.436;99.370;2024-02-15T05:10:48;35.10;99.90
12602;DHT22;30282;16.436;99.370;2024-02-15T05:13:25;35.20;99.90
12602;DHT22;30282;16.436;99.370;2024-02-15T05:15:56;35.30;99.90
12602;DHT22;30282;16.436;99.370;2024-02-15T05:18:25;35.30;99.90
12602;DHT22;30282;16.436;99.370;2024-02-15T05:20:54;35.40;99.90
12602;DHT22;30282;16.436;99.370;2024-02-15T05:23:23;35.40;99.90
12602;DHT22;30282;16.436;99.370;2024-02-15T05:25:53;35.40;99.90
12602;DHT22;30282;16.436;99.370;2024-02-15T05:28:23;35.50;99.90
12602;DHT22;30282;16.436;99.370;2024-02-15T05:31:11;35.50;99.90
12602;DHT22;30282;16.436;99.370;2024-02-15T05:33:43;35.60;99.90
12602;DHT22;30282;16.436;99.370;2024-02-15T05:36:14;35.70;99.90
12602;DHT22;30282;16.436;99.370;2024-02-15T05:38:48;35.80;99.90
12602;DHT22;30282;16.436;99.370;2024-02-15T05:41:18;35.90;99.90
12602;DHT22;30282;16.436;99.370;2024-02-15T05:43:48;36.00;99.90
12602;DHT22;30282;16.436;99.370;2024-02-15T05:46:21;36.00;99.90
12602;DHT22;30282;16.436;99.370;2024-02-15T05:48:51;36.10;99.90
12602;DHT22;30282;16.436;99.370;2024-02-15T05:51:21;36.20;99.90
12602;DHT22;30282;16.436;99.370;2024-02-15T05:53:50;36.30;99.90
12602;DHT22;30282;16.436;99.370;2024-02-15T05:56:25;36.30;99.90
12602;DHT22;30282;16.436;99.370;2024-02-15T05:58:56;36.30;99.90
12602;DHT22;30282;16.436;99.370;2024-02-15T06:01:27;36.30;99.90
12602;DHT22;30282;16.436;99.370;2024-02-15T06:03:56;36.40;99.90
12602;DHT22;30282;16.436;99.370;2024-02-15T06:06:27;36.40;99.90
12602;DHT22;30282;16.436;99.370;2024-02-15T06:08:56;36.40;99.90
12602;DHT22;30282;16.436;99.370;2024-02-15T06:11:27;36.40;99.90
12602;DHT22;30282;16.436;99.370;2024-02-15T06:13:56;36.50;99.90
12602;DHT22;30282;16.436;99.370;2024-02-15T06:16:27;36.60;99.50
12602;DHT22;30282;16.436;99.370;2024-02-15T06:18:56;36.70;99.60
12602;DHT22;30282;16.436;99.370;2024-02-15T06:21:26;36.70;98.10
12602;DHT22;30282;16.436;99.370;2024-02-15T06:23:55;36.70;97.70
12602;DHT22;30282;16.436;99.370;2024-02-15T06:26:25;36.70;95.80
12602;DHT22;30282;16.436;99.370;2024-02-15T06:28:55;36.70;96.30
12602;DHT22;30282;16.436;99.370;2024-02-15T06:31:42;36.80;97.10
12602;DHT22;30282;16.436;99.370;2024-02-15T06:34:28;36.70;94.50
12602;DHT22;30282;16.436;99.370;2024-02-15T06:37:36;36.80;96.00
12602;DHT22;30282;16.436;99.370;2024-02-15T06:40:22;36.90;95.50
12602;DHT22;30282;16.436;99.370;2024-02-15T06:42:52;36.90;95.20
12602;DHT22;30282;16.436;99.370;2024-02-15T06:45:21;36.90;96.40
12602;DHT22;30282;16.436;99.370;2024-02-15T06:47:52;36.90;94.50
12602;DHT22;30282;16.436;99.370;2024-02-15T06:50:22;36.90;94.30
12602;DHT22;30282;16.436;99.370;2024-02-15T06:52:53;36.90;92.60
12602;DHT22;30282;16.436;99.370;2024-02-15T06:55:22;36.90;94.40
12602;DHT22;30282;16.436;99.370;2024-02-15T06:57:52;36.90;95.50
12602;DHT22;30282;16.436;99.370;2024-02-15T07:00:21;36.90;94.40
12602;DHT22;30282;16.436;99.370;2024-02-15T07:02:53;36.90;93.50
12602;DHT22;30282;16.436;99.370;2024-02-15T07:05:22;36.80;93.90
12602;DHT22;30282;16.436;99.370;2024-02-15T07:07:54;36.80;92.60
12602;DHT22;30282;16.436;99.370;2024-02-15T07:10:24;36.80;92.70
12602;DHT22;30282;16.436;99.370;2024-02-15T07:12:53;36.80;91.30
12602;DHT22;30282;16.436;99.370;2024-02-15T07:15:23;36.70;92.60
12602;DHT22;30282;16.436;99.370;2024-02-15T07:17:54;36.70;91.50
12602;DHT22;30282;16.436;99.370;2024-02-15T07:20:23;36.70;92.40
12602;DHT22;30282;16.436;99.370;2024-02-15T07:22:52;36.70;92.60
12602;DHT22;30282;16.436;99.370;2024-02-15T07:25:22;36.70;92.50
12602;DHT22;30282;16.436;99.370;2024-02-15T07:27:51;36.60;91.70
12602;DHT22;30282;16.436;99.370;2024-02-15T07:30:21;36.50;91.10
12602;DHT22;30282;16.436;99.370;2024-02-15T07:32:50;36.40;91.80
12602;DHT22;30282;16.436;99.370;2024-02-15T07:35:21;36.30;91.20
12602;DHT22;30282;16.436;99.370;2024-02-15T07:37:55;36.30;89.80
12602;DHT22;30282;16.436;99.370;2024-02-15T07:40:25;36.30;90.00
12602;DHT22;30282;16.436;99.370;2024-02-15T07:42:56;36.30;91.00
12602;DHT22;30282;16.436;99.370;2024-02-15T07:45:26;36.30;88.30
12602;DHT22;30282;16.436;99.370;2024-02-15T07:47:55;36.30;89.60
12602;DHT22;30282;16.436;99.370;2024-02-15T07:50:26;36.30;89.70
12602;DHT22;30282;16.436;99.370;2024-02-15T07:52:56;36.20;86.70
12602;DHT22;30282;16.436;99.370;2024-02-15T07:55:25;36.20;88.20
12602;DHT22;30282;16.436;99.370;2024-02-15T07:57:55;36.20;84.60
12602;DHT22;30282;16.436;99.370;2024-02-15T08:00:25;36.20;88.40
12602;DHT22;30282;16.436;99.370;2024-02-15T08:02:56;36.30;88.60
12602;DHT22;30282;16.436;99.370;2024-02-15T08:05:27;36.30;90.90
12602;DHT22;30282;16.436;99.370;2024-02-15T08:07:57;36.20;91.10
12602;DHT22;30282;16.436;99.370;2024-02-15T08:10:26;36.10;87.90
12602;DHT22;30282;16.436;99.370;2024-02-15T08:12:55;36.10;89.70
12602;DHT22;30282;16.436;99.370;2024-02-15T08:15:25;36.10;89.40
12602;DHT22;30282;16.436;99.370;2024-02-15T08:17:54;36.10;87.10
12602;DHT22;30282;16.436;99.370;2024-02-15T08:20:24;36.10;88.10
12602;DHT22;30282;16.436;99.370;2024-02-15T08:22:54;36.10;87.00
12602;DHT22;30282;16.436;99.370;2024-02-15T08:25:25;36.10;87.90
12602;DHT22;30282;16.436;99.370;2024-02-15T08:27:55;36.00;85.70
12602;DHT22;30282;16.436;99.370;2024-02-15T08:30:24;36.00;90.40
12602;DHT22;30282;16.436;99.370;2024-02-15T08:32:54;36.00;88.50
12602;DHT22;30282;16.436;99.370;2024-02-15T08:35:25;35.90;87.50
12602;DHT22;30282;16.436;99.370;2024-02-15T08:37:56;35.90;86.60
12602;DHT22;30282;16.436;99.370;2024-02-15T08:40:25;35.90;85.90
12602;DHT22;30282;16.436;99.370;2024-02-15T08:42:55;35.90;86.90
12602;DHT22;30282;16.436;99.370;2024-02-15T08:45:24;35.90;90.10
12602;DHT22;30282;16.436;99.370;2024-02-15T08:47:53;35.90;90.80
12602;DHT22;30282;16.436;99.370;2024-02-15T08:50:22;35.90;91.70
12602;DHT22;30282;16.436;99.370;2024-02-15T08:52:52;35.90;90.60
12602;DHT22;30282;16.436;99.370;2024-02-15T08:55:24;35.90;89.30
12602;DHT22;30282;16.436;99.370;2024-02-15T08:57:54;35.90;91.10
12602;DHT22;30282;16.436;99.370;2024-02-15T09:00:23;35.90;92.60
12602;DHT22;30282;16.436;99.370;2024-02-15T09:02:53;35.90;92.30
12602;DHT22;30282;16.436;99.370;2024-02-15T09:05:24;36.00;91.90
12602;DHT22;30282;16.436;99.370;2024-02-15T09:07:53;35.90;92.70
12602;DHT22;30282;16.436;99.370;2024-02-15T09:10:25;36.00;93.40
12602;DHT22;30282;16.436;99.370;2024-02-15T09:12:54;36.00;93.40
12602;DHT22;30282;16.436;99.370;2024-02-15T09:15:24;36.10;92.90
12602;DHT22;30282;16.436;99.370;2024-02-15T09:17:53;36.10;93.20
12602;DHT22;30282;16.436;99.370;2024-02-15T09:20:24;36.10;93.40
12602;DHT22;30282;16.436;99.370;2024-02-15T09:22:55;36.00;92.90
12602;DHT22;30282;16.436;99.370;2024-02-15T09:25:26;36.00;93.90
12602;DHT22;30282;16.436;99.370;2024-02-15T09:27:55;36.00;93.90
12602;DHT22;30282;16.436;99.370;2024-02-15T09:30:25;36.00;94.40
12602;DHT22;30282;16.436;99.370;2024-02-15T09:32:54;36.00;94.10
12602;DHT22;30282;16.436;99.370;2024-02-15T09:35:24;36.00;94.70
12602;DHT22;30282;16.436;99.370;2024-02-15T09:37:53;35.90;95.50
12602;DHT22;30282;16.436;99.370;2024-02-15T09:40:23;35.90;94.20
12602;DHT22;30282;16.436;99.370;2024-02-15T09:42:57;35.90;94.20
12602;DHT22;30282;16.436;99.370;2024-02-15T09:45:27;35.90;94.60
12602;DHT22;30282;16.436;99.370;2024-02-15T09:47:58;35.80;94.90
12602;DHT22;30282;16.436;99.370;2024-02-15T09:50:32;35.80;95.30
12602;DHT22;30282;16.436;99.370;2024-02-15T09:53:03;35.70;95.70
12602;DHT22;30282;16.436;99.370;2024-02-15T09:55:35;35.60;96.20
12602;DHT22;30282;16.436;99.370;2024-02-15T09:58:06;35.50;96.20
12602;DHT22;30282;16.436;99.370;2024-02-15T10:00:36;35.40;96.20
12602;DHT22;30282;16.436;99.370;2024-02-15T10:03:06;35.30;95.80
12602;DHT22;30282;16.436;99.370;2024-02-15T10:05:36;35.20;95.80
12602;DHT22;30282;16.436;99.370;2024-02-15T10:08:07;35.20;95.80
12602;DHT22;30282;16.436;99.370;2024-02-15T10:10:38;35.10;95.80
12602;DHT22;30282;16.436;99.370;2024-02-15T10:13:13;35.00;95.90
12602;DHT22;30282;16.436;99.370;2024-02-15T10:15:42;34.90;96.40
12602;DHT22;30282;16.436;99.370;2024-02-15T10:18:12;34.80;95.90
12602;DHT22;30282;16.436;99.370;2024-02-15T10:20:42;34.70;95.90
12602;DHT22;30282;16.436;99.370;2024-02-15T10:23:14;34.60;95.90
12602;DHT22;30282;16.436;99.370;2024-02-15T10:25:45;34.50;95.60
12602;DHT22;30282;16.436;99.370;2024-02-15T10:28:22;34.40;95.80
12602;DHT22;30282;16.436;99.370;2024-02-15T10:30:52;34.30;96.10
12602;DHT22;30282;16.436;99.370;2024-02-15T10:33:27;34.20;95.30
12602;DHT22;30282;16.436;99.370;2024-02-15T10:36:06;34.10;96.30
12602;DHT22;30282;16.436;99.370;2024-02-15T10:38:35;34.00;95.10
12602;DHT22;30282;16.436;99.370;2024-02-15T10:41:05;34.00;95.90
12602;DHT22;30282;16.436;99.370;2024-02-15T10:43:37;33.80;95.60
12602;DHT22;30282;16.436;99.370;2024-02-15T10:46:06;33.70;96.70
12602;DHT22;30282;16.436;99.370;2024-02-15T10:48:37;33.60;97.00
12602;DHT22;30282;16.436;99.370;2024-02-15T10:51:10;33.50;96.40
12602;DHT22;30282;16.436;99.370;2024-02-15T10:53:47;33.40;96.40
12602;DHT22;30282;16.436;99.370;2024-02-15T10:56:26;33.30;96.60
12602;DHT22;30282;16.436;99.370;2024-02-15T10:59:03;33.20;96.50
12602;DHT22;30282;16.436;99.370;2024-02-15T11:01:39;33.10;96.70
12602;DHT22;30282;16.436;99.370;2024-02-15T11:04:09;33.00;96.40
12602;DHT22;30282;16.436;99.370;2024-02-15T11:06:43;32.90;96.90
12602;DHT22;30282;16.436;99.370;2024-02-15T11:09:13;32.70;97.20
12602;DHT22;30282;16.436;99.370;2024-02-15T11:11:42;32.60;98.00
12602;DHT22;30282;16.436;99.370;2024-02-15T11:14:27;32.50;98.40
12602;DHT22;30282;16.436;99.370;2024-02-15T11:16:57;32.40;98.40
12602;DHT22;30282;16.436;99.370;2024-02-15T11:19:44;32.20;98.60
12602;DHT22;30282;16.436;99.370;2024-02-15T11:22:14;32.10;98.10
12602;DHT22;30282;16.436;99.370;2024-02-15T11:24:48;32.10;98.20
12602;DHT22;30282;16.436;99.370;2024-02-15T11:27:28;32.00;98.40
12602;DHT22;30282;16.436;99.370;2024-02-15T11:30:00;31.90;98.60
12602;DHT22;30282;16.436;99.370;2024-02-15T11:32:48;31.80;98.80
12602;DHT22;30282;16.436;99.370;2024-02-15T11:35:20;31.60;99.10
12602;DHT22;30282;16.436;99.370;2024-02-15T11:37:59;31.60;99.60
12602;DHT22;30282;16.436;99.370;2024-02-15T11:43:50;31.40;99.10
12602;DHT22;30282;16.436;99.370;2024-02-15T11:46:25;31.30;99.30
12602;DHT22;30282;16.436;99.370;2024-02-15T11:48:57;31.20;99.90
12602;DHT22;30282;16.436;99.370;2024-02-15T11:51:29;31.20;99.70
12602;DHT22;30282;16.436;99.370;2024-02-15T11:54:07;31.10;99.90
12602;DHT22;30282;16.436;99.370;2024-02-15T11:56:54;31.00;99.90
12602;DHT22;30282;16.436;99.370;2024-02-15T11:59:40;30.90;99.90
12602;DHT22;30282;16.436;99.370;2024-02-15T12:02:43;30.80;99.90
12602;DHT22;30282;16.436;99.370;2024-02-15T12:05:29;30.70;99.90
12602;DHT22;30282;16.436;99.370;2024-02-15T12:08:15;30.60;99.90
12602;DHT22;30282;16.436;99.370;2024-02-15T12:11:01;30.50;99.90
12602;DHT22;30282;16.436;99.370;2024-02-15T12:13:50;30.50;99.90
12602;DHT22;30282;16.436;99.370;2024-02-15T12:16:37;30.50;99.90
12602;DHT22;30282;16.436;99.370;2024-02-15T12:19:24;30.40;99.90
12602;DHT22;30282;16.436;99.370;2024-02-15T12:21:54;30.40;99.90
12602;DHT22;30282;16.436;99.370;2024-02-15T12:24:24;30.40;99.90
12602;DHT22;30282;16.436;99.370;2024-02-15T12:27:01;30.40;99.90
12602;DHT22;30282;16.436;99.370;2024-02-15T12:29:30;30.30;99.90
12602;DHT22;30282;16.436;99.370;2024-02-15T12:32:00;30.10;99.90
12602;DHT22;30282;16.436;99.370;2024-02-15T12:34:32;30.10;99.90
12602;DHT22;30282;16.436;99.370;2024-02-15T12:37:07;30.00;99.90
12602;DHT22;30282;16.436;99.370;2024-02-15T12:39:37;29.90;99.90
12602;DHT22;30282;16.436;99.370;2024-02-15T12:42:08;29.80;99.90
12602;DHT22;30282;16.436;99.370;2024-02-15T12:44:42;29.70;99.90
12602;DHT22;30282;16.436;99.370;2024-02-15T12:47:22;29.70;99.90
12602;DHT22;30282;16.436;99.370;2024-02-15T12:49:53;29.70;99.90
12602;DHT22;30282;16.436;99.370;2024-02-15T12:52:38;29.70;99.90
12602;DHT22;30282;16.436;99.370;2024-02-15T12:55:17;29.70;99.90
12602;DHT22;30282;16.436;99.370;2024-02-15T12:57:47;29.80;99.90
12602;DHT22;30282;16.436;99.370;2024-02-15T13:00:19;29.70;99.90
12602;DHT22;30282;16.436;99.370;2024-02-15T13:02:49;29.50;99.90
12602;DHT22;30282;16.436;99.370;2024-02-15T13:05:21;29.50;99.90
12602;DHT22;30282;16.436;99.370;2024-02-15T13:07:51;29.50;99.90
12602;DHT22;30282;16.436;99.370;2024-02-15T13:10:22;29.50;99.90
12602;DHT22;30282;16.436;99.370;2024-02-15T13:12:53;29.40;99.90
12602;DHT22;30282;16.436;99.370;2024-02-15T13:15:23;29.30;99.90
12602;DHT22;30282;16.436;99.370;2024-02-15T13:18:00;29.20;99.90
12602;DHT22;30282;16.436;99.370;2024-02-15T13:20:33;29.00;99.90
12602;DHT22;30282;16.436;99.370;2024-02-15T13:23:04;28.80;99.90
12602;DHT22;30282;16.436;99.370;2024-02-15T13:25:42;28.60;99.90
12602;DHT22;30282;16.436;99.370;2024-02-15T13:28:12;28.50;99.90
12602;DHT22;30282;16.436;99.370;2024-02-15T13:30:41;28.40;99.90
12602;DHT22;30282;16.436;99.370;2024-02-15T13:33:12;28.40;99.90
12602;DHT22;30282;16.436;99.370;2024-02-15T13:35:43;28.40;99.90
12602;DHT22;30282;16.436;99.370;2024-02-15T13:38:13;28.50;99.90
12602;DHT22;30282;16.436;99.370;2024-02-15T13:40:49;28.40;99.90
12602;DHT22;30282;16.436;99.370;2024-02-15T13:43:19;28.40;99.90
12602;DHT22;30282;16.436;99.370;2024-02-15T13:45:48;28.40;99.90
12602;DHT22;30282;16.436;99.370;2024-02-15T13:48:18;28.40;99.90
12602;DHT22;30282;16.436;99.370;2024-02-15T13:50:52;28.40;99.90
12602;DHT22;30282;16.436;99.370;2024-02-15T13:53:21;28.40;99.90
12602;DHT22;30282;16.436;99.370;2024-02-15T13:55:51;28.30;99.90
12602;DHT22;30282;16.436;99.370;2024-02-15T13:58:20;28.10;99.90
12602;DHT22;30282;16.436;99.370;2024-02-15T14:00:50;28.00;99.90
12602;DHT22;30282;16.436;99.370;2024-02-15T14:03:19;27.80;99.90
12602;DHT22;30282;16.436;99.370;2024-02-15T14:05:50;27.60;99.90
12602;DHT22;30282;16.436;99.370;2024-02-15T14:08:19;27.70;99.90
12602;DHT22;30282;16.436;99.370;2024-02-15T14:10:49;27.70;99.90
12602;DHT22;30282;16.436;99.370;2024-02-15T14:13:18;27.70;99.90
12602;DHT22;30282;16.436;99.370;2024-02-15T14:15:49;27.80;99.90
12602;DHT22;30282;16.436;99.370;2024-02-15T14:18:19;27.80;99.90
12602;DHT22;30282;16.436;99.370;2024-02-15T14:20:50;27.80;99.90
12602;DHT22;30282;16.436;99.370;2024-02-15T14:23:19;27.70;99.90
12602;DHT22;30282;16.436;99.370;2024-02-15T14:25:48;27.50;99.90
12602;DHT22;30282;16.436;99.370;2024-02-15T14:28:18;27.50;99.90
12602;DHT22;30282;16.436;99.370;2024-02-15T14:30:47;27.40;99.90
12602;DHT22;30282;16.436;99.370;2024-02-15T14:33:32;27.40;99.90
12602;DHT22;30282;16.436;99.370;2024-02-15T14:36:04;27.30;99.90
12602;DHT22;30282;16.436;99.370;2024-02-15T14:38:33;27.30;99.90
12602;DHT22;30282;16.436;99.370;2024-02-15T14:41:03;27.20;99.90
12602;DHT22;30282;16.436;99.370;2024-02-15T14:43:38;27.10;99.90
12602;DHT22;30282;16.436;99.370;2024-02-15T14:46:07;26.90;99.90
12602;DHT22;30282;16.436;99.370;2024-02-15T14:48:37;26.80;99.90
12602;DHT22;30282;16.436;99.370;2024-02-15T14:51:09;26.70;99.90
12602;DHT22;30282;16.436;99.370;2024-02-15T14:53:44;26.60;99.90
12602;DHT22;30282;16.436;99.370;2024-02-15T14:56:16;26.50;99.90
12602;DHT22;30282;16.436;99.370;2024-02-15T14:58:47;26.20;99.90
12602;DHT22;30282;16.436;99.370;2024-02-15T15:01:16;25.90;99.90
12602;DHT22;30282;16.436;99.370;2024-02-15T15:03:54;25.90;99.90
12602;DHT22;30282;16.436;99.370;2024-02-15T15:06:27;26.00;99.90
12602;DHT22;30282;16.436;99.370;2024-02-15T15:09:12;26.20;99.90
12602;DHT22;30282;16.436;99.370;2024-02-15T15:11:58;26.30;99.90
12602;DHT22;30282;16.436;99.370;2024-02-15T15:14:58;26.30;99.90
12602;DHT22;30282;16.436;99.370;2024-02-15T15:17:27;26.30;99.90
12602;DHT22;30282;16.436;99.370;2024-02-15T15:19:57;26.00;99.90
12602;DHT22;30282;16.436;99.370;2024-02-15T15:22:27;25.90;99.90
12602;DHT22;30282;16.436;99.370;2024-02-15T15:24:57;25.80;99.90
12602;DHT22;30282;16.436;99.370;2024-02-15T15:27:26;25.90;99.90
12602;DHT22;30282;16.436;99.370;2024-02-15T15:29:55;26.00;99.90
12602;DHT22;30282;16.436;99.370;2024-02-15T15:32:25;26.00;99.90
12602;DHT22;30282;16.436;99.370;2024-02-15T15:34:54;26.00;99.90
12602;DHT22;30282;16.436;99.370;2024-02-15T15:37:23;26.00;99.90
12602;DHT22;30282;16.436;99.370;2024-02-15T15:39:55;25.90;99.90
12602;DHT22;30282;16.436;99.370;2024-02-15T15:42:24;25.90;99.90
12602;DHT22;30282;16.436;99.370;2024-02-15T15:44:53;25.80;99.90